createdAt,value
2022-12-24T00:01:39.145Z,13.70
2022-12-24T00:04:07.874Z,13.77
2022-12-24T00:06:36.432Z,14.13
2022-12-24T00:09:05.982Z,14.13
2022-12-24T00:11:34.665Z,14.67
2022-12-24T00:14:03.367Z,14.67
2022-12-24T00:16:33.232Z,15.23
2022-12-24T00:19:01.926Z,14.73
2022-12-24T00:21:30.340Z,16.13
2022-12-24T00:23:59.265Z,16.37
2022-12-24T00:26:27.699Z,15.57
2022-12-24T00:28:56.894Z,15.50
2022-12-24T00:31:25.605Z,15.83
2022-12-24T00:33:56.280Z,16.33
2022-12-24T00:36:24.893Z,14.93
2022-12-24T00:38:53.605Z,16.63
2022-12-24T00:41:29.060Z,16.63
2022-12-24T00:44:00.323Z,17.37
2022-12-24T00:46:30.975Z,17.43
2022-12-24T00:49:01.410Z,16.83
2022-12-24T00:51:30.630Z,17.07
2022-12-24T00:53:59.482Z,16.13
2022-12-24T00:56:28.327Z,16.27
2022-12-24T00:58:57.946Z,17.73
2022-12-24T01:01:27.087Z,15.97
2022-12-24T01:04:16.387Z,17.17
2022-12-24T01:06:45.305Z,17.10
2022-12-24T01:09:14.276Z,16.97
2022-12-24T01:11:42.702Z,16.60
2022-12-24T01:14:11.413Z,16.80
2022-12-24T01:16:40.128Z,14.60
2022-12-24T01:19:09.309Z,15.77
2022-12-24T01:21:37.827Z,14.77
2022-12-24T01:24:08.148Z,14.83
2022-12-24T01:26:36.595Z,14.80
2022-12-24T01:29:05.447Z,14.57
2022-12-24T01:31:33.923Z,14.83
2022-12-24T01:34:02.698Z,14.97
2022-12-24T01:36:31.228Z,14.73
2022-12-24T01:39:00.067Z,15.17
2022-12-24T01:41:50.032Z,14.83
2022-12-24T01:44:31.201Z,13.40
2022-12-24T01:47:10.306Z,14.47
2022-12-24T01:49:43.416Z,14.17
2022-12-24T01:52:15.972Z,14.40
2022-12-24T01:54:48.763Z,12.67
2022-12-24T01:57:22.872Z,14.37
2022-12-24T01:59:57.821Z,13.50
2022-12-24T02:02:27.225Z,11.50
2022-12-24T02:05:01.858Z,12.60
2022-12-24T02:07:30.858Z,12.60
2022-12-24T02:10:02.315Z,13.57
2022-12-24T02:12:35.950Z,12.93
2022-12-24T02:15:05.834Z,11.80
2022-12-24T02:17:41.003Z,11.40
2022-12-24T02:20:31.855Z,11.07
2022-12-24T02:23:31.540Z,11.87
2022-12-24T02:26:16.011Z,10.57
2022-12-24T02:29:11.310Z,11.20
2022-12-24T02:31:45.613Z,11.70
2022-12-24T02:34:20.134Z,10.60
2022-12-24T02:36:54.149Z,10.90
2022-12-24T02:39:28.546Z,10.73
2022-12-24T02:42:08.678Z,10.50
2022-12-24T02:44:41.721Z,11.20
2022-12-24T02:47:13.191Z,10.13
2022-12-24T02:49:45.409Z,10.57
2022-12-24T02:52:30.041Z,9.80
2022-12-24T02:54:59.862Z,12.07
2022-12-24T02:57:39.500Z,10.57
2022-12-24T03:00:10.273Z,10.90
2022-12-24T03:02:54.015Z,12.27
2022-12-24T03:05:30.439Z,11.53
2022-12-24T03:08:04.875Z,11.87
2022-12-24T03:10:37.933Z,10.93
2022-12-24T03:13:14.283Z,11.30
2022-12-24T03:15:43.472Z,12.83
2022-12-24T03:18:17.116Z,12.17
2022-12-24T03:20:49.803Z,12.30
2022-12-24T03:23:18.767Z,12.30
2022-12-24T03:25:47.508Z,11.23
2022-12-24T03:28:18.600Z,12.40
2022-12-24T03:30:49.402Z,11.50
2022-12-24T03:33:19.553Z,13.17
2022-12-24T03:35:48.373Z,12.10
2022-12-24T03:38:17.134Z,14.33
2022-12-24T03:40:45.562Z,12.37
2022-12-24T03:43:14.502Z,11.97
2022-12-24T03:45:43.310Z,13.20
2022-12-24T03:48:12.491Z,12.97
2022-12-24T03:50:42.320Z,12.40
2022-12-24T03:53:11.313Z,13.20
2022-12-24T03:55:40.235Z,13.13
2022-12-24T03:58:08.968Z,11.97
2022-12-24T04:00:37.530Z,12.77
2022-12-24T04:03:06.414Z,14.47
2022-12-24T04:05:35.308Z,13.23
2022-12-24T04:08:05.500Z,14.73
2022-12-24T04:10:33.988Z,13.70
2022-12-24T04:13:02.709Z,14.17
2022-12-24T04:15:31.183Z,14.60
2022-12-24T04:17:59.834Z,13.80
2022-12-24T04:20:28.282Z,15.00
2022-12-24T04:22:56.956Z,14.53
2022-12-24T04:25:26.827Z,13.97
2022-12-24T04:27:55.545Z,12.80
2022-12-24T04:30:23.942Z,13.67
2022-12-24T04:32:52.616Z,14.10
2022-12-24T04:35:21.050Z,13.10
2022-12-24T04:37:49.768Z,13.73
2022-12-24T04:40:18.332Z,12.60
2022-12-24T04:42:49.446Z,12.53
2022-12-24T04:45:18.250Z,12.80
2022-12-24T04:47:46.986Z,12.10
2022-12-24T04:50:15.567Z,12.27
2022-12-24T04:52:44.529Z,12.67
2022-12-24T04:55:12.977Z,13.07
2022-12-24T04:57:41.847Z,12.17
2022-12-24T05:00:13.187Z,12.70
2022-12-24T05:02:42.020Z,12.63
2022-12-24T05:05:11.011Z,13.07
2022-12-24T05:07:39.775Z,11.90
2022-12-24T05:10:11.007Z,13.67
2022-12-24T05:12:39.749Z,13.03
2022-12-24T05:15:08.757Z,13.40
2022-12-24T05:17:38.837Z,12.07
2022-12-24T05:20:08.615Z,13.27
2022-12-24T05:22:54.567Z,13.20
2022-12-24T05:25:40.384Z,13.97
2022-12-24T05:28:09.525Z,13.13
2022-12-24T05:30:38.103Z,12.97
2022-12-24T05:33:08.240Z,13.07
2022-12-24T05:35:36.711Z,13.80
2022-12-24T05:38:05.389Z,13.00
2022-12-24T05:40:33.959Z,13.00
2022-12-24T05:43:02.669Z,12.27
2022-12-24T05:45:31.092Z,11.53
2022-12-24T05:48:00.354Z,12.40
2022-12-24T05:50:30.165Z,11.23
2022-12-24T05:53:07.149Z,10.70
2022-12-24T05:55:36.109Z,11.60
2022-12-24T05:58:04.815Z,11.53
2022-12-24T06:00:33.240Z,10.80
2022-12-24T06:03:02.103Z,10.50
2022-12-24T06:05:32.440Z,11.30
2022-12-24T06:08:01.170Z,11.10
2022-12-24T06:10:29.640Z,11.60
2022-12-24T06:12:58.314Z,10.80
2022-12-24T06:15:26.772Z,10.73
2022-12-24T06:17:55.612Z,10.90
2022-12-24T06:20:24.060Z,11.17
2022-12-24T06:22:54.198Z,12.27
2022-12-24T06:25:22.678Z,11.40
2022-12-24T06:27:51.641Z,12.03
2022-12-24T06:30:20.310Z,11.60
2022-12-24T06:32:49.517Z,12.00
2022-12-24T06:35:18.159Z,10.53
2022-12-24T06:37:47.285Z,11.23
2022-12-24T06:40:17.459Z,12.20
2022-12-24T06:42:46.227Z,11.83
2022-12-24T06:45:14.745Z,10.83
2022-12-24T06:47:43.463Z,12.50
2022-12-24T06:50:12.186Z,11.00
2022-12-24T06:52:41.357Z,11.87
2022-12-24T06:55:10.684Z,11.17
2022-12-24T06:57:40.839Z,11.00
2022-12-24T07:00:11.542Z,11.77
2022-12-24T07:02:41.968Z,11.07
2022-12-24T07:05:12.387Z,11.50
2022-12-24T07:07:42.866Z,10.73
2022-12-24T07:10:13.693Z,10.93
2022-12-24T07:12:44.315Z,12.17
2022-12-24T07:15:13.663Z,12.50
2022-12-24T07:17:42.434Z,11.60
2022-12-24T07:20:14.603Z,10.60
2022-12-24T07:22:44.178Z,11.20
2022-12-24T07:25:13.085Z,11.87
2022-12-24T07:27:43.147Z,12.17
2022-12-24T07:30:12.485Z,12.40
2022-12-24T07:32:41.629Z,12.80
2022-12-24T07:35:10.552Z,11.97
2022-12-24T07:37:39.290Z,12.43
2022-12-24T07:40:09.741Z,12.00
2022-12-24T07:42:38.466Z,12.63
2022-12-24T07:45:09.523Z,12.67
2022-12-24T07:47:38.289Z,12.67
2022-12-24T07:50:08.175Z,13.40
2022-12-24T07:52:36.888Z,12.23
2022-12-24T07:55:05.744Z,12.10
2022-12-24T07:57:34.796Z,12.90
2022-12-24T08:00:03.246Z,13.33
2022-12-24T08:02:42.136Z,11.73
2022-12-24T08:05:11.350Z,13.43
2022-12-24T08:07:40.449Z,12.17
2022-12-24T08:10:10.054Z,13.27
2022-12-24T08:12:38.844Z,12.27
2022-12-24T08:15:08.143Z,12.10
2022-12-24T08:17:36.939Z,13.57
2022-12-24T08:20:09.390Z,14.20
2022-12-24T08:22:38.112Z,12.40
2022-12-24T08:25:07.244Z,11.70
2022-12-24T08:27:36.319Z,11.80
2022-12-24T08:30:05.715Z,12.50
2022-12-24T08:32:34.588Z,12.13
2022-12-24T08:35:03.078Z,12.80
2022-12-24T08:37:33.197Z,11.63
2022-12-24T08:40:01.670Z,11.73
2022-12-24T08:42:30.436Z,11.90
2022-12-24T08:44:58.954Z,12.23
2022-12-24T08:47:28.300Z,12.03
2022-12-24T08:49:56.843Z,13.60
2022-12-24T08:52:25.706Z,11.87
2022-12-24T08:54:55.539Z,12.00
2022-12-24T08:57:24.305Z,12.83
2022-12-24T08:59:52.783Z,12.37
2022-12-24T09:02:22.144Z,12.87
2022-12-24T09:04:51.007Z,12.27
2022-12-24T09:07:19.730Z,12.80
2022-12-24T09:09:48.660Z,12.83
2022-12-24T09:12:18.765Z,13.07
2022-12-24T09:14:47.518Z,14.43
2022-12-24T09:17:16.556Z,13.23
2022-12-24T09:19:45.119Z,12.77
2022-12-24T09:22:13.826Z,13.07
2022-12-24T09:24:42.344Z,12.80
2022-12-24T09:27:11.058Z,12.80
2022-12-24T09:29:41.497Z,14.37
2022-12-24T09:32:10.439Z,12.60
2022-12-24T09:34:38.997Z,12.87
2022-12-24T09:37:08.171Z,12.90
2022-12-24T09:39:36.634Z,12.47
2022-12-24T09:42:18.565Z,13.10
2022-12-24T09:44:54.443Z,13.00
2022-12-24T09:47:29.878Z,13.03
2022-12-24T09:50:03.027Z,12.67
2022-12-24T09:52:37.582Z,12.77
2022-12-24T09:55:17.377Z,12.87
2022-12-24T09:57:48.951Z,12.47
2022-12-24T10:00:22.605Z,13.53
2022-12-24T10:02:51.608Z,12.87
2022-12-24T10:05:29.495Z,13.93
2022-12-24T10:08:05.932Z,12.47
2022-12-24T10:10:41.997Z,12.47
2022-12-24T10:13:22.649Z,12.33
2022-12-24T10:16:01.251Z,12.33
2022-12-24T10:18:36.825Z,12.97
2022-12-24T10:21:14.427Z,13.17
2022-12-24T10:23:51.202Z,13.53
2022-12-24T10:26:26.148Z,12.97
2022-12-24T10:28:57.828Z,12.87
2022-12-24T10:31:31.276Z,14.20
2022-12-24T10:34:03.736Z,12.30
2022-12-24T10:36:33.509Z,13.40
2022-12-24T10:39:02.278Z,13.47
2022-12-24T10:41:31.880Z,13.80
2022-12-24T10:44:01.159Z,12.70
2022-12-24T10:46:36.269Z,14.37
2022-12-24T10:49:06.944Z,15.07
2022-12-24T10:51:41.578Z,14.40
2022-12-24T10:54:19.496Z,14.17
2022-12-24T10:56:52.973Z,13.70
2022-12-24T10:59:27.397Z,14.00
2022-12-24T11:01:58.293Z,14.33
2022-12-24T11:04:29.180Z,15.87
2022-12-24T11:06:59.153Z,15.13
2022-12-24T11:09:30.519Z,15.23
2022-12-24T11:12:03.862Z,14.73
2022-12-24T11:14:39.789Z,14.30
2022-12-24T11:17:21.814Z,14.43
2022-12-24T11:19:51.970Z,14.83
2022-12-24T11:22:24.437Z,14.97
2022-12-24T11:25:01.343Z,15.50
2022-12-24T11:27:41.457Z,16.13
2022-12-24T11:30:24.049Z,16.90
2022-12-24T11:33:17.276Z,15.37
2022-12-24T11:35:49.841Z,14.70
2022-12-24T11:38:24.375Z,15.53
2022-12-24T11:41:01.085Z,17.63
2022-12-24T11:43:44.458Z,16.47
2022-12-24T11:46:20.400Z,16.37
2022-12-24T11:49:08.273Z,15.60
2022-12-24T11:51:37.490Z,15.60
2022-12-24T11:54:15.709Z,16.73
2022-12-24T11:56:47.337Z,16.87
2022-12-24T11:59:25.056Z,15.17
2022-12-24T12:01:59.789Z,17.33
2022-12-24T12:04:33.306Z,16.07
2022-12-24T12:07:12.921Z,15.77
2022-12-24T12:09:46.724Z,16.20
2022-12-24T12:12:19.137Z,15.93
2022-12-24T12:14:51.748Z,16.27
2022-12-24T12:17:30.939Z,16.93
2022-12-24T12:20:05.466Z,17.23
2022-12-24T12:22:43.131Z,17.33
2022-12-24T12:25:22.306Z,16.30
2022-12-24T12:27:53.995Z,17.17
2022-12-24T12:30:24.390Z,17.47
2022-12-24T12:33:00.180Z,16.37
2022-12-24T12:35:34.073Z,17.13
2022-12-24T12:38:06.217Z,16.80
2022-12-24T12:40:47.953Z,16.23
2022-12-24T12:43:30.136Z,17.20
2022-12-24T12:46:06.098Z,16.53
2022-12-24T12:49:04.807Z,17.03
2022-12-24T12:51:42.288Z,16.50
2022-12-24T12:54:29.944Z,17.07
2022-12-24T12:57:05.252Z,15.67
2022-12-24T12:59:37.917Z,15.67
2022-12-24T13:02:27.648Z,16.77
2022-12-24T13:05:38.472Z,16.57
2022-12-24T13:08:28.109Z,16.37
2022-12-24T13:11:06.766Z,15.17
2022-12-24T13:14:11.590Z,15.63
2022-12-24T13:17:16.050Z,15.37
2022-12-24T13:20:05.253Z,15.33
2022-12-24T13:22:34.082Z,15.97
2022-12-24T13:25:04.438Z,15.60
2022-12-24T13:27:35.350Z,15.77
2022-12-24T13:30:10.231Z,16.13
2022-12-24T13:32:42.155Z,16.97
2022-12-24T13:35:37.247Z,16.70
2022-12-24T13:38:43.706Z,17.67
2022-12-24T13:41:50.335Z,16.33
2022-12-24T13:44:24.561Z,16.97
2022-12-24T13:46:59.694Z,16.57
2022-12-24T13:49:32.223Z,15.47
2022-12-24T13:52:19.292Z,18.03
2022-12-24T13:55:05.220Z,16.70
2022-12-24T13:57:39.378Z,17.13
2022-12-24T14:00:26.145Z,17.63
2022-12-24T14:02:57.815Z,18.33
2022-12-24T14:05:33.825Z,17.47
2022-12-24T14:08:06.070Z,17.77
2022-12-24T14:10:40.077Z,16.77
2022-12-24T14:13:48.485Z,18.07
2022-12-24T14:16:19.740Z,16.60
2022-12-24T14:18:51.961Z,17.97
2022-12-24T14:21:26.228Z,17.43
2022-12-24T14:23:57.442Z,19.57
2022-12-24T14:26:31.496Z,19.07
2022-12-24T14:29:02.314Z,18.67
2022-12-24T14:31:32.519Z,19.63
2022-12-24T14:34:13.659Z,18.73
2022-12-24T14:36:45.345Z,19.07
2022-12-24T14:39:26.168Z,18.27
2022-12-24T14:42:07.329Z,19.40
2022-12-24T14:44:44.635Z,18.53
2022-12-24T14:47:27.327Z,17.67
2022-12-24T14:50:19.941Z,19.23
2022-12-24T14:53:09.348Z,19.70
2022-12-24T14:55:44.039Z,19.70
2022-12-24T14:58:31.203Z,18.87
2022-12-24T15:01:01.156Z,18.70
2022-12-24T15:03:33.695Z,19.53
2022-12-24T15:06:06.111Z,20.17
2022-12-24T15:08:39.194Z,18.50
2022-12-24T15:11:09.982Z,18.53
2022-12-24T15:13:41.543Z,20.37
2022-12-24T15:16:12.148Z,19.83
2022-12-24T15:18:47.405Z,20.53
2022-12-24T15:21:20.457Z,21.13
2022-12-24T15:23:51.488Z,21.10
2022-12-24T15:26:26.487Z,20.57
2022-12-24T15:29:02.758Z,20.20
2022-12-24T15:31:32.784Z,20.50
2022-12-24T15:34:02.947Z,22.23
2022-12-24T15:36:34.340Z,20.00
2022-12-24T15:39:06.270Z,20.03
2022-12-24T15:42:00.203Z,20.73
2022-12-24T15:44:30.854Z,21.83
2022-12-24T15:47:01.176Z,20.70
2022-12-24T15:49:34.139Z,22.00
2022-12-24T15:52:09.119Z,25.30
2022-12-24T15:54:38.065Z,22.70
2022-12-24T15:57:24.673Z,20.57
2022-12-24T15:59:55.535Z,21.07
2022-12-24T16:02:35.165Z,19.57
2022-12-24T16:05:42.552Z,21.00
2022-12-24T16:08:30.410Z,22.23
2022-12-24T16:11:12.213Z,19.93
2022-12-24T16:13:43.273Z,19.33
2022-12-24T16:16:15.077Z,20.43
2022-12-24T16:18:52.773Z,20.40
2022-12-24T16:21:26.955Z,20.93
2022-12-24T16:23:57.429Z,20.97
2022-12-24T16:26:26.242Z,20.43
2022-12-24T16:28:56.430Z,20.67
2022-12-24T16:31:32.026Z,21.70
2022-12-24T16:34:01.874Z,19.50
2022-12-24T16:36:33.267Z,20.30
2022-12-24T16:39:19.275Z,21.23
2022-12-24T16:42:05.130Z,20.60
2022-12-24T16:44:33.626Z,27.53
2022-12-24T16:47:02.610Z,37.07
2022-12-24T16:49:31.211Z,26.47
2022-12-24T16:52:01.601Z,25.10
2022-12-24T16:54:30.887Z,22.67
2022-12-24T16:57:01.820Z,22.57
2022-12-24T16:59:30.326Z,21.53
2022-12-24T17:01:59.341Z,22.70
2022-12-24T17:04:27.854Z,21.00
2022-12-24T17:06:56.823Z,20.53
2022-12-24T17:09:26.720Z,20.97
2022-12-24T17:11:55.524Z,21.27
2022-12-24T17:14:24.091Z,23.33
2022-12-24T17:16:53.313Z,22.10
2022-12-24T17:19:21.932Z,23.03
2022-12-24T17:21:50.778Z,23.60
2022-12-24T17:24:19.302Z,22.33
2022-12-24T17:26:49.479Z,22.97
2022-12-24T17:29:17.946Z,23.43
2022-12-24T17:31:46.753Z,24.30
2022-12-24T17:34:15.318Z,28.47
2022-12-24T17:36:44.051Z,25.60
2022-12-24T17:39:12.585Z,23.13
2022-12-24T17:41:41.441Z,24.33
2022-12-24T17:44:13.736Z,23.63
2022-12-24T17:46:42.623Z,23.73
2022-12-24T17:49:11.050Z,22.67
2022-12-24T17:51:45.067Z,30.60
2022-12-24T17:54:14.464Z,25.70
2022-12-24T17:56:43.176Z,24.33
2022-12-24T17:59:12.977Z,23.77
2022-12-24T18:01:42.044Z,29.93
2022-12-24T18:04:11.606Z,27.43
2022-12-24T18:06:45.605Z,27.13
2022-12-24T18:09:15.917Z,25.27
2022-12-24T18:11:44.742Z,26.37
2022-12-24T18:14:15.393Z,26.10
2022-12-24T18:16:44.900Z,24.97
2022-12-24T18:19:13.727Z,25.77
2022-12-24T18:21:42.697Z,25.73
2022-12-24T18:24:12.798Z,27.80
2022-12-24T18:26:41.629Z,27.57
2022-12-24T18:29:10.839Z,28.17
2022-12-24T18:31:41.128Z,27.23
2022-12-24T18:34:12.542Z,26.53
2022-12-24T18:36:41.418Z,26.73
2022-12-24T18:39:10.037Z,26.13
2022-12-24T18:41:39.055Z,25.70
2022-12-24T18:44:07.448Z,26.53
2022-12-24T18:46:36.254Z,26.03
2022-12-24T18:49:06.136Z,37.50
2022-12-24T18:51:36.293Z,47.60
2022-12-24T18:54:05.245Z,35.63
2022-12-24T18:56:34.141Z,28.47
2022-12-24T18:59:03.798Z,26.13
2022-12-24T19:01:35.345Z,25.63
2022-12-24T19:04:05.653Z,24.33
2022-12-24T19:06:34.721Z,25.30
2022-12-24T19:09:03.230Z,24.27
2022-12-24T19:11:34.041Z,23.67
2022-12-24T19:14:04.498Z,23.60
2022-12-24T19:16:36.363Z,25.37
2022-12-24T19:19:08.297Z,25.30
2022-12-24T19:21:37.257Z,25.57
2022-12-24T19:24:07.411Z,26.60
2022-12-24T19:26:36.125Z,27.37
2022-12-24T19:29:04.727Z,26.53
2022-12-24T19:31:33.469Z,26.43
2022-12-24T19:34:02.139Z,26.20
2022-12-24T19:36:33.899Z,26.90
2022-12-24T19:39:02.386Z,25.70
2022-12-24T19:41:31.699Z,28.67
2022-12-24T19:44:02.141Z,29.73
2022-12-24T19:46:34.241Z,27.93
2022-12-24T19:49:05.284Z,44.73
2022-12-24T19:51:36.095Z,30.30
2022-12-24T19:54:05.971Z,28.30
2022-12-24T19:56:35.450Z,25.80
2022-12-24T19:59:04.654Z,26.23
2022-12-24T20:01:34.984Z,26.40
2022-12-24T20:04:03.762Z,26.30
2022-12-24T20:06:36.185Z,25.23
2022-12-24T20:09:06.757Z,26.77
2022-12-24T20:11:35.817Z,29.53
2022-12-24T20:14:05.879Z,28.47
2022-12-24T20:16:35.802Z,26.57
2022-12-24T20:19:06.738Z,28.73
2022-12-24T20:21:37.963Z,28.00
2022-12-24T20:24:07.529Z,27.97
2022-12-24T20:26:36.334Z,29.90
2022-12-24T20:29:06.025Z,30.90
2022-12-24T20:31:35.824Z,29.07
2022-12-24T20:34:07.442Z,29.40
2022-12-24T20:36:38.283Z,29.37
2022-12-24T20:39:07.813Z,28.17
2022-12-24T20:41:37.804Z,28.93
2022-12-24T20:44:06.722Z,30.83
2022-12-24T20:46:35.712Z,29.87
2022-12-24T20:49:05.281Z,44.73
2022-12-24T20:51:34.393Z,30.60
2022-12-24T20:54:04.394Z,32.17
2022-12-24T20:56:33.240Z,30.13
2022-12-24T20:59:02.648Z,30.17
2022-12-24T21:01:31.645Z,30.70
2022-12-24T21:04:04.584Z,33.33
2022-12-24T21:06:34.477Z,31.23
2022-12-24T21:09:05.754Z,32.20
2022-12-24T21:11:51.784Z,29.27
2022-12-24T21:14:22.940Z,29.10
2022-12-24T21:16:52.166Z,29.03
2022-12-24T21:19:22.894Z,31.27
2022-12-24T21:21:52.050Z,28.37
2022-12-24T21:24:21.863Z,31.77
2022-12-24T21:26:50.569Z,31.57
2022-12-24T21:29:19.091Z,30.40
2022-12-24T21:31:48.302Z,29.63
2022-12-24T21:34:16.755Z,30.30
2022-12-24T21:36:46.573Z,28.77
2022-12-24T21:39:15.076Z,29.27
2022-12-24T21:41:45.174Z,29.20
2022-12-24T21:44:13.732Z,30.60
2022-12-24T21:46:42.602Z,30.10
2022-12-24T21:49:29.658Z,31.00
2022-12-24T21:52:00.000Z,31.57
2022-12-24T21:54:28.517Z,31.77
2022-12-24T21:57:17.455Z,30.27
2022-12-24T21:59:46.453Z,35.63
2022-12-24T22:02:16.979Z,34.43
2022-12-24T22:04:45.964Z,32.03
2022-12-24T22:07:39.709Z,32.80
2022-12-24T22:10:27.601Z,31.83
2022-12-24T22:13:00.787Z,30.93
2022-12-24T22:15:30.404Z,33.57
2022-12-24T22:17:59.274Z,32.10
2022-12-24T22:20:29.006Z,33.07
2022-12-24T22:22:57.716Z,32.10
2022-12-24T22:25:26.194Z,31.70
2022-12-24T22:27:55.217Z,34.10
2022-12-24T22:30:25.402Z,31.93
2022-12-24T22:32:54.103Z,31.60
2022-12-24T22:35:22.595Z,33.33
2022-12-24T22:37:55.989Z,30.87
2022-12-24T22:40:28.357Z,29.37
2022-12-24T22:42:57.142Z,31.80
2022-12-24T22:45:27.075Z,29.63
2022-12-24T22:47:55.858Z,29.83
2022-12-24T22:50:24.423Z,28.73
2022-12-24T22:52:54.041Z,30.47
2022-12-24T22:55:22.842Z,30.93
2022-12-24T22:57:51.663Z,31.13
2022-12-24T23:00:41.693Z,31.43
2022-12-24T23:03:12.191Z,31.17
2022-12-24T23:05:41.256Z,32.33
2022-12-24T23:08:10.979Z,30.50
2022-12-24T23:10:39.959Z,30.03
2022-12-24T23:13:26.121Z,31.37
2022-12-24T23:15:56.422Z,31.57
2022-12-24T23:18:25.143Z,31.00
2022-12-24T23:20:53.638Z,32.37
2022-12-24T23:23:22.580Z,33.07
2022-12-24T23:25:51.113Z,35.07
2022-12-24T23:28:19.831Z,34.67
2022-12-24T23:30:59.421Z,32.13
2022-12-24T23:33:28.733Z,31.50
2022-12-24T23:35:57.709Z,32.50
2022-12-24T23:38:26.525Z,32.67
2022-12-24T23:40:56.779Z,31.83
2022-12-24T23:43:26.234Z,32.17
2022-12-24T23:45:55.501Z,30.73
2022-12-24T23:48:27.039Z,31.17
2022-12-24T23:51:05.247Z,28.97
2022-12-24T23:53:34.293Z,28.97
2022-12-24T23:56:03.019Z,27.17
2022-12-24T23:58:31.798Z,26.00
